sensor_id;sensor_type;location;lat;lon;timestamp;P1;durP1;ratioP1;P2;durP2;ratioP2
28166;SDS011;15455;53.376;-6.262;2023-12-28T00:01:33;8.95;;;4.72;;
28166;SDS011;15455;53.376;-6.262;2023-12-28T00:04:18;7.38;;;3.75;;
28166;SDS011;15455;53.376;-6.262;2023-12-28T00:07:04;6.28;;;3.78;;
28166;SDS011;15455;53.376;-6.262;2023-12-28T00:09:49;11.20;;;4.07;;
28166;SDS011;15455;53.376;-6.262;2023-12-28T00:12:35;9.18;;;3.78;;
28166;SDS011;15455;53.376;-6.262;2023-12-28T00:15:21;8.93;;;3.28;;
28166;SDS011;15455;53.376;-6.262;2023-12-28T00:18:07;9.48;;;4.75;;
28166;SDS011;15455;53.376;-6.262;2023-12-28T00:20:53;8.18;;;3.15;;
28166;SDS011;15455;53.376;-6.262;2023-12-28T00:23:39;3.20;;;3.00;;
28166;SDS011;15455;53.376;-6.262;2023-12-28T00:26:24;6.38;;;2.80;;
28166;SDS011;15455;53.376;-6.262;2023-12-28T00:29:19;5.63;;;2.45;;
28166;SDS011;15455;53.376;-6.262;2023-12-28T00:32:05;7.38;;;2.65;;
28166;SDS011;15455;53.376;-6.262;2023-12-28T00:34:51;6.25;;;3.42;;
28166;SDS011;15455;53.376;-6.262;2023-12-28T00:37:37;2.72;;;2.17;;
28166;SDS011;15455;53.376;-6.262;2023-12-28T00:40:23;4.68;;;2.70;;
28166;SDS011;15455;53.376;-6.262;2023-12-28T00:43:08;2.70;;;2.20;;
28166;SDS011;15455;53.376;-6.262;2023-12-28T00:45:54;3.85;;;2.47;;
28166;SDS011;15455;53.376;-6.262;2023-12-28T00:48:39;3.15;;;2.22;;
28166;SDS011;15455;53.376;-6.262;2023-12-28T00:51:25;6.25;;;2.47;;
28166;SDS011;15455;53.376;-6.262;2023-12-28T00:54:10;3.58;;;2.05;;
28166;SDS011;15455;53.376;-6.262;2023-12-28T00:56:56;6.72;;;2.30;;
28166;SDS011;15455;53.376;-6.262;2023-12-28T00:59:42;3.25;;;2.22;;
28166;SDS011;15455;53.376;-6.262;2023-12-28T01:02:29;5.93;;;2.30;;
28166;SDS011;15455;53.376;-6.262;2023-12-28T01:05:14;7.28;;;2.47;;
28166;SDS011;15455;53.376;-6.262;2023-12-28T01:08:00;4.22;;;2.40;;
28166;SDS011;15455;53.376;-6.262;2023-12-28T01:10:45;6.82;;;2.97;;
28166;SDS011;15455;53.376;-6.262;2023-12-28T01:13:32;4.13;;;3.67;;
28166;SDS011;15455;53.376;-6.262;2023-12-28T01:16:18;9.00;;;3.83;;
28166;SDS011;15455;53.376;-6.262;2023-12-28T01:19:04;6.85;;;3.83;;
28166;SDS011;15455;53.376;-6.262;2023-12-28T01:21:49;2.78;;;2.50;;
28166;SDS011;15455;53.376;-6.262;2023-12-28T01:24:35;9.45;;;3.97;;
28166;SDS011;15455;53.376;-6.262;2023-12-28T01:27:20;7.05;;;3.17;;
28166;SDS011;15455;53.376;-6.262;2023-12-28T01:30:06;5.13;;;3.40;;
28166;SDS011;15455;53.376;-6.262;2023-12-28T01:32:53;3.58;;;2.70;;
28166;SDS011;15455;53.376;-6.262;2023-12-28T01:35:39;6.65;;;4.05;;
28166;SDS011;15455;53.376;-6.262;2023-12-28T01:38:26;7.38;;;4.30;;
28166;SDS011;15455;53.376;-6.262;2023-12-28T01:41:12;8.05;;;4.40;;
28166;SDS011;15455;53.376;-6.262;2023-12-28T01:43:58;10.23;;;4.20;;
28166;SDS011;15455;53.376;-6.262;2023-12-28T01:46:43;8.98;;;4.25;;
28166;SDS011;15455;53.376;-6.262;2023-12-28T01:49:29;9.73;;;5.07;;
28166;SDS011;15455;53.376;-6.262;2023-12-28T01:52:16;5.43;;;5.05;;
28166;SDS011;15455;53.376;-6.262;2023-12-28T01:55:02;5.53;;;4.95;;
28166;SDS011;15455;53.376;-6.262;2023-12-28T01:57:48;4.97;;;3.63;;
28166;SDS011;15455;53.376;-6.262;2023-12-28T02:00:34;12.80;;;5.10;;
28166;SDS011;15455;53.376;-6.262;2023-12-28T02:03:24;8.38;;;5.18;;
28166;SDS011;15455;53.376;-6.262;2023-12-28T02:06:10;10.07;;;5.35;;
28166;SDS011;15455;53.376;-6.262;2023-12-28T02:08:56;4.97;;;4.38;;
28166;SDS011;15455;53.376;-6.262;2023-12-28T02:11:41;11.98;;;6.00;;
28166;SDS011;15455;53.376;-6.262;2023-12-28T02:14:26;8.88;;;4.22;;
28166;SDS011;15455;53.376;-6.262;2023-12-28T02:17:16;9.57;;;4.57;;
28166;SDS011;15455;53.376;-6.262;2023-12-28T02:20:08;6.72;;;4.20;;
28166;SDS011;15455;53.376;-6.262;2023-12-28T02:22:55;15.45;;;4.05;;
28166;SDS011;15455;53.376;-6.262;2023-12-28T02:25:41;5.07;;;3.17;;
28166;SDS011;15455;53.376;-6.262;2023-12-28T02:28:27;5.72;;;4.32;;
28166;SDS011;15455;53.376;-6.262;2023-12-28T02:31:26;9.98;;;3.67;;
28166;SDS011;15455;53.376;-6.262;2023-12-28T02:34:22;5.68;;;4.15;;
28166;SDS011;15455;53.376;-6.262;2023-12-28T02:37:15;6.38;;;4.55;;
28166;SDS011;15455;53.376;-6.262;2023-12-28T02:40:03;11.02;;;3.53;;
28166;SDS011;15455;53.376;-6.262;2023-12-28T02:42:49;6.75;;;4.13;;
28166;SDS011;15455;53.376;-6.262;2023-12-28T02:45:35;14.52;;;3.35;;
28166;SDS011;15455;53.376;-6.262;2023-12-28T02:48:22;12.20;;;4.40;;
28166;SDS011;15455;53.376;-6.262;2023-12-28T02:51:08;6.85;;;2.97;;
28166;SDS011;15455;53.376;-6.262;2023-12-28T02:53:54;10.85;;;3.70;;
28166;SDS011;15455;53.376;-6.262;2023-12-28T02:56:40;14.30;;;4.00;;
28166;SDS011;15455;53.376;-6.262;2023-12-28T02:59:28;9.23;;;4.25;;
28166;SDS011;15455;53.376;-6.262;2023-12-28T03:02:13;7.63;;;3.58;;
28166;SDS011;15455;53.376;-6.262;2023-12-28T03:04:59;10.73;;;3.40;;
28166;SDS011;15455;53.376;-6.262;2023-12-28T03:07:45;11.68;;;3.75;;
28166;SDS011;15455;53.376;-6.262;2023-12-28T03:10:31;12.98;;;3.72;;
28166;SDS011;15455;53.376;-6.262;2023-12-28T03:13:16;10.40;;;3.53;;
28166;SDS011;15455;53.376;-6.262;2023-12-28T03:16:04;16.38;;;4.10;;
28166;SDS011;15455;53.376;-6.262;2023-12-28T03:18:49;9.88;;;3.47;;
28166;SDS011;15455;53.376;-6.262;2023-12-28T03:21:38;8.88;;;3.53;;
28166;SDS011;15455;53.376;-6.262;2023-12-28T03:24:25;24.58;;;3.65;;
28166;SDS011;15455;53.376;-6.262;2023-12-28T03:27:11;14.27;;;3.58;;
28166;SDS011;15455;53.376;-6.262;2023-12-28T03:29:57;7.20;;;2.75;;
28166;SDS011;15455;53.376;-6.262;2023-12-28T03:32:42;7.95;;;3.13;;
28166;SDS011;15455;53.376;-6.262;2023-12-28T03:35:28;9.50;;;3.60;;
28166;SDS011;15455;53.376;-6.262;2023-12-28T03:38:13;12.98;;;3.33;;
28166;SDS011;15455;53.376;-6.262;2023-12-28T03:40:59;10.27;;;3.30;;
28166;SDS011;15455;53.376;-6.262;2023-12-28T03:43:45;10.23;;;4.10;;
28166;SDS011;15455;53.376;-6.262;2023-12-28T03:46:32;9.05;;;3.40;;
28166;SDS011;15455;53.376;-6.262;2023-12-28T03:49:18;6.38;;;3.35;;
28166;SDS011;15455;53.376;-6.262;2023-12-28T03:52:05;7.72;;;3.65;;
28166;SDS011;15455;53.376;-6.262;2023-12-28T03:54:51;14.60;;;4.07;;
28166;SDS011;15455;53.376;-6.262;2023-12-28T03:57:36;7.35;;;2.83;;
28166;SDS011;15455;53.376;-6.262;2023-12-28T04:00:22;12.02;;;3.75;;
28166;SDS011;15455;53.376;-6.262;2023-12-28T04:03:08;11.73;;;4.03;;
28166;SDS011;15455;53.376;-6.262;2023-12-28T04:05:54;8.88;;;3.30;;
28166;SDS011;15455;53.376;-6.262;2023-12-28T04:08:40;9.10;;;3.20;;
28166;SDS011;15455;53.376;-6.262;2023-12-28T04:11:26;8.63;;;3.15;;
28166;SDS011;15455;53.376;-6.262;2023-12-28T04:14:12;14.32;;;3.42;;
28166;SDS011;15455;53.376;-6.262;2023-12-28T04:16:58;8.38;;;3.58;;
28166;SDS011;15455;53.376;-6.262;2023-12-28T04:19:44;8.55;;;3.15;;
28166;SDS011;15455;53.376;-6.262;2023-12-28T04:22:29;14.18;;;2.88;;
28166;SDS011;15455;53.376;-6.262;2023-12-28T04:25:15;4.15;;;2.40;;
28166;SDS011;15455;53.376;-6.262;2023-12-28T04:28:03;8.95;;;2.63;;
28166;SDS011;15455;53.376;-6.262;2023-12-28T04:30:48;8.80;;;3.22;;
28166;SDS011;15455;53.376;-6.262;2023-12-28T04:33:34;12.65;;;3.15;;
28166;SDS011;15455;53.376;-6.262;2023-12-28T04:36:20;10.63;;;3.53;;
28166;SDS011;15455;53.376;-6.262;2023-12-28T04:39:06;4.82;;;2.33;;
28166;SDS011;15455;53.376;-6.262;2023-12-28T04:41:52;13.93;;;3.60;;
28166;SDS011;15455;53.376;-6.262;2023-12-28T04:44:39;7.50;;;2.75;;
28166;SDS011;15455;53.376;-6.262;2023-12-28T04:47:25;14.25;;;3.45;;
28166;SDS011;15455;53.376;-6.262;2023-12-28T04:50:10;11.80;;;3.50;;
28166;SDS011;15455;53.376;-6.262;2023-12-28T04:52:56;14.63;;;4.03;;
28166;SDS011;15455;53.376;-6.262;2023-12-28T04:55:41;11.38;;;4.05;;
28166;SDS011;15455;53.376;-6.262;2023-12-28T04:58:27;13.10;;;3.25;;
28166;SDS011;15455;53.376;-6.262;2023-12-28T05:01:13;19.80;;;4.05;;
28166;SDS011;15455;53.376;-6.262;2023-12-28T05:03:58;20.73;;;4.53;;
28166;SDS011;15455;53.376;-6.262;2023-12-28T05:06:44;17.85;;;4.28;;
28166;SDS011;15455;53.376;-6.262;2023-12-28T05:09:31;18.17;;;2.53;;
28166;SDS011;15455;53.376;-6.262;2023-12-28T05:12:16;30.40;;;4.47;;
28166;SDS011;15455;53.376;-6.262;2023-12-28T05:15:03;16.42;;;2.65;;
28166;SDS011;15455;53.376;-6.262;2023-12-28T05:17:48;19.10;;;3.47;;
28166;SDS011;15455;53.376;-6.262;2023-12-28T05:20:36;23.88;;;3.13;;
28166;SDS011;15455;53.376;-6.262;2023-12-28T05:23:21;17.02;;;2.95;;
28166;SDS011;15455;53.376;-6.262;2023-12-28T05:26:06;19.20;;;3.28;;
28166;SDS011;15455;53.376;-6.262;2023-12-28T05:28:52;17.48;;;2.10;;
28166;SDS011;15455;53.376;-6.262;2023-12-28T05:31:38;21.30;;;2.92;;
28166;SDS011;15455;53.376;-6.262;2023-12-28T05:34:24;13.20;;;3.15;;
28166;SDS011;15455;53.376;-6.262;2023-12-28T05:37:10;16.27;;;1.88;;
28166;SDS011;15455;53.376;-6.262;2023-12-28T05:39:55;20.42;;;2.60;;
28166;SDS011;15455;53.376;-6.262;2023-12-28T05:42:43;9.18;;;2.08;;
28166;SDS011;15455;53.376;-6.262;2023-12-28T05:45:28;15.35;;;2.63;;
28166;SDS011;15455;53.376;-6.262;2023-12-28T05:48:14;14.88;;;2.30;;
28166;SDS011;15455;53.376;-6.262;2023-12-28T05:51:00;14.00;;;2.38;;
28166;SDS011;15455;53.376;-6.262;2023-12-28T05:53:46;8.40;;;2.28;;
28166;SDS011;15455;53.376;-6.262;2023-12-28T05:56:32;15.77;;;3.30;;
28166;SDS011;15455;53.376;-6.262;2023-12-28T05:59:17;16.83;;;2.55;;
28166;SDS011;15455;53.376;-6.262;2023-12-28T06:02:03;12.65;;;2.15;;
28166;SDS011;15455;53.376;-6.262;2023-12-28T06:04:49;14.82;;;3.33;;
28166;SDS011;15455;53.376;-6.262;2023-12-28T06:07:35;13.70;;;2.97;;
28166;SDS011;15455;53.376;-6.262;2023-12-28T06:10:20;5.40;;;1.63;;
28166;SDS011;15455;53.376;-6.262;2023-12-28T06:13:06;10.68;;;2.28;;
28166;SDS011;15455;53.376;-6.262;2023-12-28T06:15:52;8.60;;;2.15;;
28166;SDS011;15455;53.376;-6.262;2023-12-28T06:18:37;13.63;;;2.38;;
28166;SDS011;15455;53.376;-6.262;2023-12-28T06:21:23;11.18;;;1.85;;
28166;SDS011;15455;53.376;-6.262;2023-12-28T06:24:09;15.80;;;2.22;;
28166;SDS011;15455;53.376;-6.262;2023-12-28T06:26:54;11.85;;;2.72;;
28166;SDS011;15455;53.376;-6.262;2023-12-28T06:29:40;12.63;;;2.05;;
28166;SDS011;15455;53.376;-6.262;2023-12-28T06:32:25;18.60;;;2.42;;
28166;SDS011;15455;53.376;-6.262;2023-12-28T06:35:12;9.15;;;2.63;;
28166;SDS011;15455;53.376;-6.262;2023-12-28T06:37:58;22.95;;;3.10;;
28166;SDS011;15455;53.376;-6.262;2023-12-28T06:40:44;76.90;;;4.72;;
28166;SDS011;15455;53.376;-6.262;2023-12-28T06:43:29;11.98;;;2.20;;
28166;SDS011;15455;53.376;-6.262;2023-12-28T06:46:15;19.40;;;2.83;;
28166;SDS011;15455;53.376;-6.262;2023-12-28T06:49:01;9.13;;;2.33;;
28166;SDS011;15455;53.376;-6.262;2023-12-28T06:51:47;12.80;;;2.53;;
28166;SDS011;15455;53.376;-6.262;2023-12-28T06:54:33;18.40;;;2.90;;
28166;SDS011;15455;53.376;-6.262;2023-12-28T06:57:19;11.85;;;2.65;;
28166;SDS011;15455;53.376;-6.262;2023-12-28T07:00:05;8.75;;;1.95;;
28166;SDS011;15455;53.376;-6.262;2023-12-28T07:02:51;8.95;;;2.60;;
28166;SDS011;15455;53.376;-6.262;2023-12-28T07:05:37;19.42;;;2.70;;
28166;SDS011;15455;53.376;-6.262;2023-12-28T07:08:23;9.40;;;2.53;;
28166;SDS011;15455;53.376;-6.262;2023-12-28T07:11:12;8.75;;;1.90;;
28166;SDS011;15455;53.376;-6.262;2023-12-28T07:13:57;5.18;;;1.63;;
28166;SDS011;15455;53.376;-6.262;2023-12-28T07:16:43;14.10;;;2.17;;
28166;SDS011;15455;53.376;-6.262;2023-12-28T07:19:29;6.30;;;2.10;;
28166;SDS011;15455;53.376;-6.262;2023-12-28T07:22:15;2.78;;;2.08;;
28166;SDS011;15455;53.376;-6.262;2023-12-28T07:25:00;3.95;;;2.05;;
28166;SDS011;15455;53.376;-6.262;2023-12-28T07:27:45;8.65;;;2.40;;
28166;SDS011;15455;53.376;-6.262;2023-12-28T07:30:31;7.85;;;2.33;;
28166;SDS011;15455;53.376;-6.262;2023-12-28T07:33:17;9.80;;;2.13;;
28166;SDS011;15455;53.376;-6.262;2023-12-28T07:36:03;6.03;;;2.50;;
28166;SDS011;15455;53.376;-6.262;2023-12-28T07:38:51;6.80;;;2.63;;
28166;SDS011;15455;53.376;-6.262;2023-12-28T07:41:36;10.00;;;3.38;;
28166;SDS011;15455;53.376;-6.262;2023-12-28T07:44:22;10.88;;;2.78;;
28166;SDS011;15455;53.376;-6.262;2023-12-28T07:47:07;7.40;;;2.10;;
28166;SDS011;15455;53.376;-6.262;2023-12-28T07:49:54;9.75;;;2.47;;
28166;SDS011;15455;53.376;-6.262;2023-12-28T07:52:40;7.35;;;2.35;;
28166;SDS011;15455;53.376;-6.262;2023-12-28T07:55:26;5.68;;;2.92;;
28166;SDS011;15455;53.376;-6.262;2023-12-28T07:58:12;10.68;;;2.33;;
28166;SDS011;15455;53.376;-6.262;2023-12-28T08:00:57;6.93;;;1.83;;
28166;SDS011;15455;53.376;-6.262;2023-12-28T08:03:43;11.18;;;2.20;;
28166;SDS011;15455;53.376;-6.262;2023-12-28T08:06:29;10.75;;;1.98;;
28166;SDS011;15455;53.376;-6.262;2023-12-28T08:09:17;16.13;;;2.13;;
28166;SDS011;15455;53.376;-6.262;2023-12-28T08:12:03;9.52;;;2.85;;
28166;SDS011;15455;53.376;-6.262;2023-12-28T08:14:49;4.97;;;1.67;;
28166;SDS011;15455;53.376;-6.262;2023-12-28T08:17:34;9.95;;;2.50;;
28166;SDS011;15455;53.376;-6.262;2023-12-28T08:20:20;14.35;;;2.45;;
28166;SDS011;15455;53.376;-6.262;2023-12-28T08:23:05;20.95;;;2.55;;
28166;SDS011;15455;53.376;-6.262;2023-12-28T08:26:02;7.55;;;2.65;;
28166;SDS011;15455;53.376;-6.262;2023-12-28T08:28:48;10.50;;;2.30;;
28166;SDS011;15455;53.376;-6.262;2023-12-28T08:31:33;11.75;;;2.13;;
28166;SDS011;15455;53.376;-6.262;2023-12-28T08:34:19;15.10;;;2.20;;
28166;SDS011;15455;53.376;-6.262;2023-12-28T08:37:05;10.10;;;3.50;;
28166;SDS011;15455;53.376;-6.262;2023-12-28T08:39:51;7.00;;;2.42;;
28166;SDS011;15455;53.376;-6.262;2023-12-28T08:42:38;8.73;;;2.75;;
28166;SDS011;15455;53.376;-6.262;2023-12-28T08:45:25;8.93;;;3.72;;
28166;SDS011;15455;53.376;-6.262;2023-12-28T08:48:10;11.13;;;2.72;;
28166;SDS011;15455;53.376;-6.262;2023-12-28T08:50:56;11.15;;;1.88;;
28166;SDS011;15455;53.376;-6.262;2023-12-28T08:53:41;7.18;;;2.53;;
28166;SDS011;15455;53.376;-6.262;2023-12-28T08:56:27;9.15;;;2.20;;
28166;SDS011;15455;53.376;-6.262;2023-12-28T08:59:13;8.40;;;1.83;;
28166;SDS011;15455;53.376;-6.262;2023-12-28T09:01:58;9.23;;;2.22;;
28166;SDS011;15455;53.376;-6.262;2023-12-28T09:04:45;5.25;;;2.08;;
28166;SDS011;15455;53.376;-6.262;2023-12-28T09:07:30;9.32;;;2.38;;
28166;SDS011;15455;53.376;-6.262;2023-12-28T09:10:16;11.95;;;2.10;;
28166;SDS011;15455;53.376;-6.262;2023-12-28T09:13:03;3.10;;;1.60;;
28166;SDS011;15455;53.376;-6.262;2023-12-28T09:15:50;7.00;;;2.53;;
28166;SDS011;15455;53.376;-6.262;2023-12-28T09:18:36;6.43;;;1.83;;
28166;SDS011;15455;53.376;-6.262;2023-12-28T09:21:23;9.15;;;1.80;;
28166;SDS011;15455;53.376;-6.262;2023-12-28T09:24:09;10.98;;;2.80;;
28166;SDS011;15455;53.376;-6.262;2023-12-28T09:26:54;20.10;;;3.45;;
28166;SDS011;15455;53.376;-6.262;2023-12-28T09:29:40;13.65;;;2.00;;
28166;SDS011;15455;53.376;-6.262;2023-12-28T09:32:26;7.10;;;2.33;;
28166;SDS011;15455;53.376;-6.262;2023-12-28T09:35:12;11.85;;;1.83;;
28166;SDS011;15455;53.376;-6.262;2023-12-28T09:37:57;10.50;;;1.60;;
28166;SDS011;15455;53.376;-6.262;2023-12-28T09:40:43;17.58;;;1.92;;
28166;SDS011;15455;53.376;-6.262;2023-12-28T09:43:35;7.53;;;2.22;;
28166;SDS011;15455;53.376;-6.262;2023-12-28T09:46:23;12.60;;;2.58;;
28166;SDS011;15455;53.376;-6.262;2023-12-28T09:49:08;6.05;;;2.88;;
28166;SDS011;15455;53.376;-6.262;2023-12-28T09:51:55;9.73;;;2.63;;
28166;SDS011;15455;53.376;-6.262;2023-12-28T09:54:41;13.38;;;2.33;;
28166;SDS011;15455;53.376;-6.262;2023-12-28T09:57:26;6.68;;;2.35;;
28166;SDS011;15455;53.376;-6.262;2023-12-28T10:00:12;10.23;;;2.42;;
28166;SDS011;15455;53.376;-6.262;2023-12-28T10:02:58;7.72;;;1.73;;
28166;SDS011;15455;53.376;-6.262;2023-12-28T10:05:45;1.52;;;1.20;;
28166;SDS011;15455;53.376;-6.262;2023-12-28T10:08:32;5.80;;;1.58;;
28166;SDS011;15455;53.376;-6.262;2023-12-28T10:11:17;2.20;;;0.90;;
28166;SDS011;15455;53.376;-6.262;2023-12-28T10:14:04;2.35;;;1.20;;
28166;SDS011;15455;53.376;-6.262;2023-12-28T10:16:50;2.97;;;0.60;;
28166;SDS011;15455;53.376;-6.262;2023-12-28T10:19:36;2.40;;;0.98;;
28166;SDS011;15455;53.376;-6.262;2023-12-28T10:22:23;1.92;;;0.50;;
28166;SDS011;15455;53.376;-6.262;2023-12-28T10:25:08;2.90;;;1.40;;
28166;SDS011;15455;53.376;-6.262;2023-12-28T10:27:54;1.33;;;0.65;;
28166;SDS011;15455;53.376;-6.262;2023-12-28T10:30:40;3.83;;;0.90;;
28166;SDS011;15455;53.376;-6.262;2023-12-28T10:33:27;2.70;;;0.90;;
28166;SDS011;15455;53.376;-6.262;2023-12-28T10:36:12;1.05;;;0.80;;
28166;SDS011;15455;53.376;-6.262;2023-12-28T10:39:01;4.03;;;1.02;;
28166;SDS011;15455;53.376;-6.262;2023-12-28T10:41:49;1.40;;;1.00;;
28166;SDS011;15455;53.376;-6.262;2023-12-28T10:44:41;2.95;;;0.95;;
28166;SDS011;15455;53.376;-6.262;2023-12-28T10:47:29;1.50;;;0.88;;
28166;SDS011;15455;53.376;-6.262;2023-12-28T10:50:18;4.15;;;1.80;;
28166;SDS011;15455;53.376;-6.262;2023-12-28T10:53:56;1.10;;;0.82;;
28166;SDS011;15455;53.376;-6.262;2023-12-28T10:59:41;1.35;;;0.63;;
28166;SDS011;15455;53.376;-6.262;2023-12-28T11:05:23;4.32;;;1.42;;
28166;SDS011;15455;53.376;-6.262;2023-12-28T11:08:10;4.95;;;0.93;;
28166;SDS011;15455;53.376;-6.262;2023-12-28T11:10:57;3.45;;;1.40;;
28166;SDS011;15455;53.376;-6.262;2023-12-28T11:13:46;2.70;;;0.93;;
28166;SDS011;15455;53.376;-6.262;2023-12-28T11:16:33;6.40;;;0.93;;
28166;SDS011;15455;53.376;-6.262;2023-12-28T11:19:20;4.50;;;1.60;;
28166;SDS011;15455;53.376;-6.262;2023-12-28T11:22:07;7.68;;;0.82;;
28166;SDS011;15455;53.376;-6.262;2023-12-28T11:24:53;4.30;;;0.90;;
28166;SDS011;15455;53.376;-6.262;2023-12-28T11:27:39;8.13;;;1.23;;
28166;SDS011;15455;53.376;-6.262;2023-12-28T11:30:26;6.28;;;0.80;;
28166;SDS011;15455;53.376;-6.262;2023-12-28T11:33:13;8.63;;;1.35;;
28166;SDS011;15455;53.376;-6.262;2023-12-28T11:35:59;3.92;;;0.82;;
28166;SDS011;15455;53.376;-6.262;2023-12-28T11:38:45;4.85;;;1.05;;
28166;SDS011;15455;53.376;-6.262;2023-12-28T11:41:31;9.82;;;0.93;;
28166;SDS011;15455;53.376;-6.262;2023-12-28T11:44:18;6.50;;;1.50;;
28166;SDS011;15455;53.376;-6.262;2023-12-28T11:47:13;8.00;;;1.33;;
28166;SDS011;15455;53.376;-6.262;2023-12-28T11:52:52;6.90;;;1.58;;
28166;SDS011;15455;53.376;-6.262;2023-12-28T11:55:38;10.43;;;1.42;;
28166;SDS011;15455;53.376;-6.262;2023-12-28T11:58:23;3.88;;;1.08;;
28166;SDS011;15455;53.376;-6.262;2023-12-28T12:01:08;5.05;;;1.13;;
28166;SDS011;15455;53.376;-6.262;2023-12-28T12:03:54;8.73;;;1.25;;
28166;SDS011;15455;53.376;-6.262;2023-12-28T12:06:40;8.38;;;1.35;;
28166;SDS011;15455;53.376;-6.262;2023-12-28T12:09:25;8.88;;;1.50;;
28166;SDS011;15455;53.376;-6.262;2023-12-28T12:12:11;11.63;;;1.13;;
28166;SDS011;15455;53.376;-6.262;2023-12-28T12:14:57;5.40;;;1.23;;
28166;SDS011;15455;53.376;-6.262;2023-12-28T12:17:43;6.93;;;1.35;;
28166;SDS011;15455;53.376;-6.262;2023-12-28T12:20:29;4.57;;;1.95;;
28166;SDS011;15455;53.376;-6.262;2023-12-28T12:23:15;2.83;;;0.98;;
28166;SDS011;15455;53.376;-6.262;2023-12-28T12:26:04;4.65;;;1.58;;
28166;SDS011;15455;53.376;-6.262;2023-12-28T12:28:50;3.92;;;1.27;;
28166;SDS011;15455;53.376;-6.262;2023-12-28T12:31:35;11.65;;;1.58;;
28166;SDS011;15455;53.376;-6.262;2023-12-28T12:34:23;11.30;;;1.73;;
28166;SDS011;15455;53.376;-6.262;2023-12-28T12:37:09;14.95;;;1.80;;
28166;SDS011;15455;53.376;-6.262;2023-12-28T12:39:55;12.48;;;2.20;;
28166;SDS011;15455;53.376;-6.262;2023-12-28T12:42:41;14.73;;;2.28;;
28166;SDS011;15455;53.376;-6.262;2023-12-28T12:45:27;14.52;;;1.98;;
28166;SDS011;15455;53.376;-6.262;2023-12-28T12:48:14;11.27;;;2.25;;
28166;SDS011;15455;53.376;-6.262;2023-12-28T12:51:01;9.88;;;2.38;;
28166;SDS011;15455;53.376;-6.262;2023-12-28T12:53:48;8.82;;;1.65;;
28166;SDS011;15455;53.376;-6.262;2023-12-28T12:56:34;12.40;;;1.95;;
28166;SDS011;15455;53.376;-6.262;2023-12-28T12:59:20;11.60;;;2.13;;
28166;SDS011;15455;53.376;-6.262;2023-12-28T13:02:07;9.60;;;1.58;;
28166;SDS011;15455;53.376;-6.262;2023-12-28T13:04:54;13.05;;;1.95;;
28166;SDS011;15455;53.376;-6.262;2023-12-28T13:07:40;14.10;;;2.10;;
28166;SDS011;15455;53.376;-6.262;2023-12-28T13:10:26;10.43;;;1.80;;
28166;SDS011;15455;53.376;-6.262;2023-12-28T13:13:11;5.80;;;1.45;;
28166;SDS011;15455;53.376;-6.262;2023-12-28T13:15:57;8.70;;;1.58;;
28166;SDS011;15455;53.376;-6.262;2023-12-28T13:18:43;9.45;;;1.17;;
28166;SDS011;15455;53.376;-6.262;2023-12-28T13:21:29;5.50;;;1.33;;
28166;SDS011;15455;53.376;-6.262;2023-12-28T13:24:14;9.57;;;2.22;;
28166;SDS011;15455;53.376;-6.262;2023-12-28T13:27:00;6.93;;;1.55;;
28166;SDS011;15455;53.376;-6.262;2023-12-28T13:29:45;8.23;;;1.52;;
28166;SDS011;15455;53.376;-6.262;2023-12-28T13:32:31;9.82;;;1.63;;
28166;SDS011;15455;53.376;-6.262;2023-12-28T13:35:16;4.20;;;1.92;;
28166;SDS011;15455;53.376;-6.262;2023-12-28T13:38:03;11.80;;;2.13;;
28166;SDS011;15455;53.376;-6.262;2023-12-28T13:40:49;13.20;;;1.15;;
28166;SDS011;15455;53.376;-6.262;2023-12-28T13:43:34;8.45;;;2.55;;
28166;SDS011;15455;53.376;-6.262;2023-12-28T13:46:20;4.93;;;1.83;;
28166;SDS011;15455;53.376;-6.262;2023-12-28T13:49:06;13.50;;;1.80;;
28166;SDS011;15455;53.376;-6.262;2023-12-28T13:51:53;9.02;;;1.88;;
28166;SDS011;15455;53.376;-6.262;2023-12-28T13:54:39;10.50;;;1.70;;
28166;SDS011;15455;53.376;-6.262;2023-12-28T13:57:25;12.93;;;1.58;;
28166;SDS011;15455;53.376;-6.262;2023-12-28T14:00:11;10.10;;;1.67;;
28166;SDS011;15455;53.376;-6.262;2023-12-28T14:02:58;3.83;;;1.45;;
28166;SDS011;15455;53.376;-6.262;2023-12-28T14:05:45;14.30;;;1.08;;
28166;SDS011;15455;53.376;-6.262;2023-12-28T14:08:31;10.50;;;1.42;;
28166;SDS011;15455;53.376;-6.262;2023-12-28T14:11:18;12.80;;;1.77;;
28166;SDS011;15455;53.376;-6.262;2023-12-28T14:14:03;10.65;;;1.58;;
28166;SDS011;15455;53.376;-6.262;2023-12-28T14:16:49;14.35;;;2.03;;
28166;SDS011;15455;53.376;-6.262;2023-12-28T14:19:34;11.18;;;1.48;;
28166;SDS011;15455;53.376;-6.262;2023-12-28T14:22:21;5.25;;;1.10;;
28166;SDS011;15455;53.376;-6.262;2023-12-28T14:25:07;7.30;;;1.90;;
28166;SDS011;15455;53.376;-6.262;2023-12-28T14:27:57;7.18;;;1.40;;
28166;SDS011;15455;53.376;-6.262;2023-12-28T14:30:43;8.30;;;1.52;;
28166;SDS011;15455;53.376;-6.262;2023-12-28T14:33:30;3.33;;;1.20;;
28166;SDS011;15455;53.376;-6.262;2023-12-28T14:36:23;9.10;;;1.17;;
28166;SDS011;15455;53.376;-6.262;2023-12-28T14:39:22;6.72;;;1.40;;
28166;SDS011;15455;53.376;-6.262;2023-12-28T14:42:07;9.75;;;1.60;;
28166;SDS011;15455;53.376;-6.262;2023-12-28T14:44:53;5.22;;;1.45;;
28166;SDS011;15455;53.376;-6.262;2023-12-28T14:47:39;9.75;;;1.35;;
28166;SDS011;15455;53.376;-6.262;2023-12-28T14:50:24;2.90;;;0.88;;
28166;SDS011;15455;53.376;-6.262;2023-12-28T14:53:10;7.45;;;1.70;;
28166;SDS011;15455;53.376;-6.262;2023-12-28T14:55:56;4.78;;;0.88;;
28166;SDS011;15455;53.376;-6.262;2023-12-28T14:58:41;5.85;;;1.00;;
28166;SDS011;15455;53.376;-6.262;2023-12-28T15:01:32;7.50;;;0.85;;
28166;SDS011;15455;53.376;-6.262;2023-12-28T15:04:18;3.05;;;0.80;;
28166;SDS011;15455;53.376;-6.262;2023-12-28T15:07:09;3.08;;;0.82;;
28166;SDS011;15455;53.376;-6.262;2023-12-28T15:09:54;4.40;;;1.00;;
28166;SDS011;15455;53.376;-6.262;2023-12-28T15:12:43;2.83;;;0.98;;
28166;SDS011;15455;53.376;-6.262;2023-12-28T15:15:29;3.22;;;0.93;;
28166;SDS011;15455;53.376;-6.262;2023-12-28T15:18:15;9.93;;;0.90;;
28166;SDS011;15455;53.376;-6.262;2023-12-28T15:21:02;8.20;;;1.80;;
28166;SDS011;15455;53.376;-6.262;2023-12-28T15:23:49;6.03;;;1.08;;
28166;SDS011;15455;53.376;-6.262;2023-12-28T15:26:34;4.13;;;1.15;;
28166;SDS011;15455;53.376;-6.262;2023-12-28T15:29:21;4.82;;;1.73;;
28166;SDS011;15455;53.376;-6.262;2023-12-28T15:32:06;6.03;;;1.50;;
28166;SDS011;15455;53.376;-6.262;2023-12-28T15:34:52;5.95;;;1.65;;
28166;SDS011;15455;53.376;-6.262;2023-12-28T15:37:38;3.53;;;0.85;;
28166;SDS011;15455;53.376;-6.262;2023-12-28T15:40:23;4.07;;;1.10;;
28166;SDS011;15455;53.376;-6.262;2023-12-28T15:43:09;6.10;;;1.13;;
28166;SDS011;15455;53.376;-6.262;2023-12-28T15:45:55;7.22;;;1.10;;
28166;SDS011;15455;53.376;-6.262;2023-12-28T15:48:41;3.75;;;1.25;;
28166;SDS011;15455;53.376;-6.262;2023-12-28T15:51:27;3.50;;;1.15;;
28166;SDS011;15455;53.376;-6.262;2023-12-28T15:54:12;4.80;;;1.30;;
28166;SDS011;15455;53.376;-6.262;2023-12-28T15:56:58;4.78;;;1.30;;
28166;SDS011;15455;53.376;-6.262;2023-12-28T15:59:43;9.32;;;1.38;;
28166;SDS011;15455;53.376;-6.262;2023-12-28T16:02:29;2.45;;;1.30;;
28166;SDS011;15455;53.376;-6.262;2023-12-28T16:05:15;9.15;;;1.52;;
28166;SDS011;15455;53.376;-6.262;2023-12-28T16:08:01;9.63;;;1.40;;
28166;SDS011;15455;53.376;-6.262;2023-12-28T16:10:48;8.57;;;2.22;;
28166;SDS011;15455;53.376;-6.262;2023-12-28T16:13:34;5.43;;;1.50;;
28166;SDS011;15455;53.376;-6.262;2023-12-28T16:16:22;9.20;;;1.27;;
28166;SDS011;15455;53.376;-6.262;2023-12-28T16:19:08;4.00;;;1.50;;
28166;SDS011;15455;53.376;-6.262;2023-12-28T16:21:54;5.95;;;2.10;;
28166;SDS011;15455;53.376;-6.262;2023-12-28T16:24:40;6.25;;;1.95;;
28166;SDS011;15455;53.376;-6.262;2023-12-28T16:27:26;4.70;;;1.75;;
28166;SDS011;15455;53.376;-6.262;2023-12-28T16:30:12;3.42;;;1.00;;
28166;SDS011;15455;53.376;-6.262;2023-12-28T16:32:58;3.05;;;1.17;;